Tiszafured, Hungary
Current Conditions -  °F | °C
As of 8:15 AM on Saturday 20 Dec 2014 (Local Time) from LHDC Reporting Station
Overcast Overcast  
Wind Chill: 36°   Ceiling: 3000
Heat Index: 41°   Visibility: 6mi
Dew Point: 39°   Wind: 7mph
Humidity: 93%   Direction: 200°SSW
Pressure: 30"   Gusts: NA
Location:  47.62°N, 20.76°E
Report Text: LHDC 200615Z 20006KT 9999 BKN030 OVC083 05/04 Q1016 RERA
Loading
Personal Weather Stations






























Interactive Weather Map New forecast layout! Learn more

10-Day Weather Forecast

Advertisements
Track Severe Weather on mobile